Terminal Aerodrome Forecast
Issued by NWS

Home | Current Version | Previous Version | Text Only | Print | Product List | Glossary On
Versions: 1 2 3 4 5 6 7 8 9 10 11 12 13
000
FTUS43 KMQT 220537
TAFSAW
TAF
KSAW 220537Z 2206/2306 19006KT P6SM BKN100
     FM221800 23005KT P6SM VCSH BKN100
     FM222200 20006KT P6SM -RA BKN035
     FM230000 01003KT 3SM -RA BR OVC008
     FM230100 36003KT 2SM -RA BR OVC003=

USA.gov is the U.S. government's official web portal to all federal, state and local government web resources and services.